Decoded Metar for PAEN (KENAI in AK, USA) (IATA:ENA) | Meteo·Mobile Aviation Weather
aviador You're here:

PAEN Decoded Metar

KENAI in AK, USA
Report Time2019-02-22 03:53:00
UTC Time2019-02-22 04:09:59
Flight Rules vfr VFR
Wind130° at 04 kt
W.Decomp.*RWY 19: 0.8 kt HW 3.9 kt LCW
W.Rank130° ranks 35
Current wind is below 130° avg. (5.0)
Visibility9999 m
Phenomena:N/A
Clouds:N/A
CeilingNone
Temp-8°C (ISA -23)
Dew Point-8°C (100% RH)
AAT-12.3°C
QNH1015 hPa
Density Alt-2,776 ft
Elevation89 ft
Report Wrong Elevation
Raw Report
PAEN 220353Z 13004KT 10SM CLR M08/M08 A2998 RMK AO2 SLP154
T10781083=

Extra information for PAEN:More info

Metar Taf Metar & Taf Last 4 Metars F.Rules Stats Wind Profile Meteogram Temp Stats Airport Information Weather charts Add Link Nearby VenuesMetar ALERT Operation Metar Decoded Social comments

AIRNAV info for PAEN